Pagina principale
METAR-TAF:

METAR-TAF

Aeroporti :

Aeroporto di Salerno-Costa d'Amalfi

Salerno, Italia

latitudine: 40-37N, longitudine: 014-55E, altezza: 40 m

Osservazione

Il bollettino è stato emesso 10 ore e 53 minuti fa, alle 15:50 UTC
Vento 4 kt da sud/sud-ovest
Temperature 15°C
Umidità 67%
Pressione 1028 hPa
Visibilità: 8000 m
Poco nuvoloso ad un'altezza di 3500 ft

METAR: LIRI 231550Z 20004KT 8000 FEW035 15/09 Q1028

Ora: 03:43 (02:43 UTC)


TAF: mancante

Osservazioni e previsioni meteorologiche di più di 4000 aeroporti (messaggi METAR e TAF).

Le stazioni disponibili sono rappresentate dai dischi gialli e rossi sulla carta.

Puntare il mouse per vedere il nome della stazione.

Clicca sopra per visualizzare le osservazioni e previsioni meteorologiche.

Per cambiare la mappa : fare clic sui pulsanti verdi con una croce nera per ingrandire, il pulsante verde con un trattino per diminuire, o sulla freccia verde per le mappe adiacenti.


METAR-TAF: